sensor_id;sensor_type;location;lat;lon;timestamp;pressure;altitude;pressure_sealevel;temperature
70415;BMP280;57837;52.064;113.478;2023-06-22T00:02:27;93579.34;;;35.76
70415;BMP280;57837;52.064;113.478;2023-06-22T00:05:31;93566.81;;;36.00
70415;BMP280;57837;52.064;113.478;2023-06-22T00:08:37;93565.78;;;35.74
70415;BMP280;57837;52.064;113.478;2023-06-22T00:11:40;93556.00;;;36.36
70415;BMP280;57837;52.064;113.478;2023-06-22T00:14:44;93564.84;;;36.18
70415;BMP280;57837;52.064;113.478;2023-06-22T00:17:47;93567.25;;;36.48
70415;BMP280;57837;52.064;113.478;2023-06-22T00:20:50;93573.72;;;36.58
70415;BMP280;57837;52.064;113.478;2023-06-22T00:23:54;93565.78;;;37.01
70415;BMP280;57837;52.064;113.478;2023-06-22T00:26:58;93560.91;;;37.59
70415;BMP280;57837;52.064;113.478;2023-06-22T00:30:03;93564.00;;;37.71
70415;BMP280;57837;52.064;113.478;2023-06-22T00:33:06;93551.59;;;37.85
70415;BMP280;57837;52.064;113.478;2023-06-22T00:36:10;93545.56;;;38.09
70415;BMP280;57837;52.064;113.478;2023-06-22T00:39:16;93548.06;;;36.96
70415;BMP280;57837;52.064;113.478;2023-06-22T00:42:19;93542.41;;;37.10
70415;BMP280;57837;52.064;113.478;2023-06-22T00:45:24;93542.44;;;37.51
70415;BMP280;57837;52.064;113.478;2023-06-22T00:48:27;93535.00;;;37.30
70415;BMP280;57837;52.064;113.478;2023-06-22T00:51:31;93542.25;;;38.12
70415;BMP280;57837;52.064;113.478;2023-06-22T00:54:36;93529.41;;;37.46
70415;BMP280;57837;52.064;113.478;2023-06-22T00:57:40;93544.25;;;37.03
70415;BMP280;57837;52.064;113.478;2023-06-22T01:00:43;93544.53;;;36.72
70415;BMP280;57837;52.064;113.478;2023-06-22T01:03:47;93537.91;;;37.17
70415;BMP280;57837;52.064;113.478;2023-06-22T01:06:58;93532.28;;;37.30
70415;BMP280;57837;52.064;113.478;2023-06-22T01:16:35;93523.66;;;38.73
70415;BMP280;57837;52.064;113.478;2023-06-22T01:19:45;93517.66;;;39.60
70415;BMP280;57837;52.064;113.478;2023-06-22T01:30:22;93508.69;;;38.21
70415;BMP280;57837;52.064;113.478;2023-06-22T01:33:26;93506.72;;;38.73
70415;BMP280;57837;52.064;113.478;2023-06-22T01:36:32;93504.34;;;39.13
70415;BMP280;57837;52.064;113.478;2023-06-22T01:39:36;93506.38;;;39.42
70415;BMP280;57837;52.064;113.478;2023-06-22T01:42:41;93500.78;;;39.95
70415;BMP280;57837;52.064;113.478;2023-06-22T01:45:46;93493.50;;;39.72
70415;BMP280;57837;52.064;113.478;2023-06-22T01:48:50;93485.59;;;39.82
70415;BMP280;57837;52.064;113.478;2023-06-22T01:51:57;93480.19;;;39.23
70415;BMP280;57837;52.064;113.478;2023-06-22T01:55:03;93482.16;;;39.50
70415;BMP280;57837;52.064;113.478;2023-06-22T01:58:07;93478.34;;;39.31
70415;BMP280;57837;52.064;113.478;2023-06-22T02:01:13;93481.81;;;38.53
70415;BMP280;57837;52.064;113.478;2023-06-22T02:04:24;93474.91;;;39.01
70415;BMP280;57837;52.064;113.478;2023-06-22T02:07:32;93472.00;;;39.50
70415;BMP280;57837;52.064;113.478;2023-06-22T02:10:38;93463.31;;;39.88
70415;BMP280;57837;52.064;113.478;2023-06-22T02:13:45;93466.97;;;40.00
70415;BMP280;57837;52.064;113.478;2023-06-22T02:16:51;93457.84;;;39.54
70415;BMP280;57837;52.064;113.478;2023-06-22T02:19:54;93456.78;;;39.08
70415;BMP280;57837;52.064;113.478;2023-06-22T02:22:58;93452.44;;;38.97
70415;BMP280;57837;52.064;113.478;2023-06-22T02:26:03;93446.28;;;37.68
70415;BMP280;57837;52.064;113.478;2023-06-22T02:29:06;93447.63;;;37.02
70415;BMP280;57837;52.064;113.478;2023-06-22T02:32:09;93446.69;;;37.15
70415;BMP280;57837;52.064;113.478;2023-06-22T02:35:14;93453.03;;;37.24
70415;BMP280;57837;52.064;113.478;2023-06-22T02:38:17;93441.00;;;37.72
70415;BMP280;57837;52.064;113.478;2023-06-22T02:41:21;93436.31;;;38.22
70415;BMP280;57837;52.064;113.478;2023-06-22T02:44:24;93429.50;;;38.72
70415;BMP280;57837;52.064;113.478;2023-06-22T02:47:28;93431.22;;;39.15
70415;BMP280;57837;52.064;113.478;2023-06-22T02:50:32;93424.25;;;38.52
70415;BMP280;57837;52.064;113.478;2023-06-22T02:53:36;93417.09;;;37.64
70415;BMP280;57837;52.064;113.478;2023-06-22T02:56:39;93414.94;;;36.94
70415;BMP280;57837;52.064;113.478;2023-06-22T02:59:43;93408.50;;;37.25
70415;BMP280;57837;52.064;113.478;2023-06-22T03:02:48;93410.44;;;37.00
70415;BMP280;57837;52.064;113.478;2023-06-22T03:05:53;93404.63;;;36.67
70415;BMP280;57837;52.064;113.478;2023-06-22T03:09:04;93404.41;;;36.61
70415;BMP280;57837;52.064;113.478;2023-06-22T03:12:09;93401.97;;;36.10
70415;BMP280;57837;52.064;113.478;2023-06-22T03:15:23;93401.59;;;36.17
70415;BMP280;57837;52.064;113.478;2023-06-22T03:18:27;93393.53;;;36.00
70415;BMP280;57837;52.064;113.478;2023-06-22T03:21:30;93382.81;;;36.02
70415;BMP280;57837;52.064;113.478;2023-06-22T03:24:35;93386.22;;;36.22
70415;BMP280;57837;52.064;113.478;2023-06-22T03:27:40;93379.19;;;35.76
70415;BMP280;57837;52.064;113.478;2023-06-22T03:30:45;93375.72;;;34.85
70415;BMP280;57837;52.064;113.478;2023-06-22T03:33:50;93369.28;;;34.28
70415;BMP280;57837;52.064;113.478;2023-06-22T03:36:53;93365.94;;;33.51
70415;BMP280;57837;52.064;113.478;2023-06-22T03:39:57;93366.19;;;32.58
70415;BMP280;57837;52.064;113.478;2023-06-22T03:43:00;93349.09;;;31.99
70415;BMP280;57837;52.064;113.478;2023-06-22T03:46:04;93351.44;;;32.18
70415;BMP280;57837;52.064;113.478;2023-06-22T03:49:09;93344.56;;;32.01
70415;BMP280;57837;52.064;113.478;2023-06-22T03:52:12;93335.59;;;31.83
70415;BMP280;57837;52.064;113.478;2023-06-22T03:55:15;93334.00;;;31.92
70415;BMP280;57837;52.064;113.478;2023-06-22T03:58:19;93334.63;;;32.04
70415;BMP280;57837;52.064;113.478;2023-06-22T04:01:23;93331.53;;;31.96
70415;BMP280;57837;52.064;113.478;2023-06-22T04:04:27;93329.59;;;32.10
70415;BMP280;57837;52.064;113.478;2023-06-22T04:07:31;93329.13;;;32.14
70415;BMP280;57837;52.064;113.478;2023-06-22T04:10:34;93324.44;;;32.14
70415;BMP280;57837;52.064;113.478;2023-06-22T04:13:37;93317.09;;;31.76
70415;BMP280;57837;52.064;113.478;2023-06-22T04:16:40;93315.00;;;31.74
70415;BMP280;57837;52.064;113.478;2023-06-22T04:19:43;93310.78;;;31.58
70415;BMP280;57837;52.064;113.478;2023-06-22T04:22:46;93299.97;;;31.05
70415;BMP280;57837;52.064;113.478;2023-06-22T04:25:49;93302.78;;;30.84
70415;BMP280;57837;52.064;113.478;2023-06-22T04:28:54;93291.66;;;30.64
70415;BMP280;57837;52.064;113.478;2023-06-22T04:31:58;93296.66;;;30.70
70415;BMP280;57837;52.064;113.478;2023-06-22T04:35:05;93300.78;;;30.96
70415;BMP280;57837;52.064;113.478;2023-06-22T04:38:09;93291.38;;;30.95
70415;BMP280;57837;52.064;113.478;2023-06-22T04:41:13;93283.06;;;30.78
70415;BMP280;57837;52.064;113.478;2023-06-22T04:44:18;93281.09;;;30.66
70415;BMP280;57837;52.064;113.478;2023-06-22T04:47:27;93274.25;;;30.63
70415;BMP280;57837;52.064;113.478;2023-06-22T04:50:30;93287.25;;;30.57
70415;BMP280;57837;52.064;113.478;2023-06-22T04:53:33;93273.19;;;30.57
70415;BMP280;57837;52.064;113.478;2023-06-22T04:56:37;93274.16;;;30.50
70415;BMP280;57837;52.064;113.478;2023-06-22T04:59:40;93266.94;;;30.41
70415;BMP280;57837;52.064;113.478;2023-06-22T05:02:46;93267.75;;;30.20
70415;BMP280;57837;52.064;113.478;2023-06-22T05:05:49;93260.53;;;29.99
70415;BMP280;57837;52.064;113.478;2023-06-22T05:08:56;93263.69;;;29.96
70415;BMP280;57837;52.064;113.478;2023-06-22T05:12:03;93250.06;;;29.69
70415;BMP280;57837;52.064;113.478;2023-06-22T05:15:10;93240.09;;;29.69
70415;BMP280;57837;52.064;113.478;2023-06-22T05:18:13;93244.84;;;29.82
70415;BMP280;57837;52.064;113.478;2023-06-22T05:21:17;93241.63;;;29.95
70415;BMP280;57837;52.064;113.478;2023-06-22T05:24:20;93249.75;;;29.97
70415;BMP280;57837;52.064;113.478;2023-06-22T05:27:24;93240.69;;;30.02
70415;BMP280;57837;52.064;113.478;2023-06-22T05:30:28;93236.06;;;30.15
70415;BMP280;57837;52.064;113.478;2023-06-22T05:33:32;93240.69;;;30.02
70415;BMP280;57837;52.064;113.478;2023-06-22T05:36:35;93230.69;;;29.91
70415;BMP280;57837;52.064;113.478;2023-06-22T05:39:39;93230.59;;;29.89
70415;BMP280;57837;52.064;113.478;2023-06-22T05:42:42;93222.31;;;29.85
70415;BMP280;57837;52.064;113.478;2023-06-22T05:45:45;93213.50;;;29.83
70415;BMP280;57837;52.064;113.478;2023-06-22T05:48:49;93212.59;;;29.90
70415;BMP280;57837;52.064;113.478;2023-06-22T05:51:53;93208.41;;;29.98
70415;BMP280;57837;52.064;113.478;2023-06-22T05:54:56;93203.41;;;29.81
70415;BMP280;57837;52.064;113.478;2023-06-22T05:58:00;93196.91;;;29.61
70415;BMP280;57837;52.064;113.478;2023-06-22T06:01:04;93192.47;;;29.54
70415;BMP280;57837;52.064;113.478;2023-06-22T06:04:07;93172.53;;;29.11
70415;BMP280;57837;52.064;113.478;2023-06-22T06:07:11;93169.06;;;29.20
70415;BMP280;57837;52.064;113.478;2023-06-22T06:10:15;93162.38;;;29.30
70415;BMP280;57837;52.064;113.478;2023-06-22T06:13:19;93161.78;;;29.20
70415;BMP280;57837;52.064;113.478;2023-06-22T06:16:23;93138.81;;;29.15
70415;BMP280;57837;52.064;113.478;2023-06-22T06:19:26;93138.81;;;29.15
70415;BMP280;57837;52.064;113.478;2023-06-22T06:22:30;93148.28;;;29.18
70415;BMP280;57837;52.064;113.478;2023-06-22T06:25:34;93152.94;;;29.18
70415;BMP280;57837;52.064;113.478;2023-06-22T06:28:38;93151.91;;;29.23
70415;BMP280;57837;52.064;113.478;2023-06-22T06:31:42;93151.66;;;29.19
70415;BMP280;57837;52.064;113.478;2023-06-22T06:34:46;93157.47;;;29.15
70415;BMP280;57837;52.064;113.478;2023-06-22T06:37:50;93151.66;;;29.07
70415;BMP280;57837;52.064;113.478;2023-06-22T06:40:54;93155.38;;;29.14
70415;BMP280;57837;52.064;113.478;2023-06-22T06:43:58;93148.78;;;29.15
70415;BMP280;57837;52.064;113.478;2023-06-22T06:47:02;93141.56;;;29.06
70415;BMP280;57837;52.064;113.478;2023-06-22T06:50:07;93151.78;;;29.09
70415;BMP280;57837;52.064;113.478;2023-06-22T06:53:11;93141.47;;;29.15
70415;BMP280;57837;52.064;113.478;2023-06-22T06:56:15;93122.91;;;29.17
70415;BMP280;57837;52.064;113.478;2023-06-22T06:59:19;93117.94;;;29.12
70415;BMP280;57837;52.064;113.478;2023-06-22T07:02:23;93123.50;;;29.16
70415;BMP280;57837;52.064;113.478;2023-06-22T07:05:27;93116.88;;;29.17
70415;BMP280;57837;52.064;113.478;2023-06-22T07:08:31;93091.13;;;29.10
70415;BMP280;57837;52.064;113.478;2023-06-22T07:11:35;93085.22;;;29.11
70415;BMP280;57837;52.064;113.478;2023-06-22T07:14:40;93087.41;;;29.03
70415;BMP280;57837;52.064;113.478;2023-06-22T07:17:44;93073.50;;;29.05
70415;BMP280;57837;52.064;113.478;2023-06-22T07:20:47;93070.03;;;29.14
70415;BMP280;57837;52.064;113.478;2023-06-22T07:23:52;93073.63;;;29.18
70415;BMP280;57837;52.064;113.478;2023-06-22T07:26:56;93072.25;;;29.17
70415;BMP280;57837;52.064;113.478;2023-06-22T07:30:02;93071.66;;;29.30
70415;BMP280;57837;52.064;113.478;2023-06-22T07:33:06;93063.09;;;29.32
70415;BMP280;57837;52.064;113.478;2023-06-22T07:36:12;93074.34;;;29.30
70415;BMP280;57837;52.064;113.478;2023-06-22T07:39:15;93074.69;;;29.25
70415;BMP280;57837;52.064;113.478;2023-06-22T07:42:20;93073.88;;;29.22
70415;BMP280;57837;52.064;113.478;2023-06-22T07:45:23;93065.16;;;29.22
70415;BMP280;57837;52.064;113.478;2023-06-22T07:48:27;93062.94;;;29.18
70415;BMP280;57837;52.064;113.478;2023-06-22T07:51:31;93060.28;;;29.18
70415;BMP280;57837;52.064;113.478;2023-06-22T07:54:35;93053.78;;;29.21
70415;BMP280;57837;52.064;113.478;2023-06-22T07:57:39;93051.97;;;29.24
70415;BMP280;57837;52.064;113.478;2023-06-22T08:00:45;93042.66;;;29.25
70415;BMP280;57837;52.064;113.478;2023-06-22T08:03:49;93045.13;;;29.21
70415;BMP280;57837;52.064;113.478;2023-06-22T08:06:53;93045.13;;;29.21
70415;BMP280;57837;52.064;113.478;2023-06-22T08:09:57;93038.63;;;29.24
70415;BMP280;57837;52.064;113.478;2023-06-22T08:13:01;93047.31;;;29.24
70415;BMP280;57837;52.064;113.478;2023-06-22T08:16:05;93042.19;;;29.17
70415;BMP280;57837;52.064;113.478;2023-06-22T08:19:10;93043.13;;;29.21
70415;BMP280;57837;52.064;113.478;2023-06-22T08:22:15;93038.84;;;29.16
70415;BMP280;57837;52.064;113.478;2023-06-22T08:25:20;93035.25;;;29.12
70415;BMP280;57837;52.064;113.478;2023-06-22T08:28:24;93040.59;;;29.12
70415;BMP280;57837;52.064;113.478;2023-06-22T08:31:28;93030.28;;;29.06
70415;BMP280;57837;52.064;113.478;2023-06-22T08:34:31;93022.84;;;29.05
70415;BMP280;57837;52.064;113.478;2023-06-22T08:37:35;93018.91;;;29.06
70415;BMP280;57837;52.064;113.478;2023-06-22T08:40:40;93032.47;;;29.10
70415;BMP280;57837;52.064;113.478;2023-06-22T08:43:44;93024.47;;;29.10
70415;BMP280;57837;52.064;113.478;2023-06-22T08:46:47;93023.78;;;29.09
70415;BMP280;57837;52.064;113.478;2023-06-22T08:49:54;93014.28;;;29.06
70415;BMP280;57837;52.064;113.478;2023-06-22T08:52:57;93013.22;;;29.00
70415;BMP280;57837;52.064;113.478;2023-06-22T08:56:00;93010.66;;;29.02
70415;BMP280;57837;52.064;113.478;2023-06-22T08:59:04;93002.19;;;29.05
70415;BMP280;57837;52.064;113.478;2023-06-22T09:02:10;93002.75;;;29.04
70415;BMP280;57837;52.064;113.478;2023-06-22T09:05:15;92986.53;;;29.00
70415;BMP280;57837;52.064;113.478;2023-06-22T09:08:19;92987.81;;;28.99
70415;BMP280;57837;52.064;113.478;2023-06-22T09:11:23;92987.81;;;28.99
70415;BMP280;57837;52.064;113.478;2023-06-22T09:14:26;92987.91;;;29.01
70415;BMP280;57837;52.064;113.478;2023-06-22T09:17:30;92981.22;;;29.00
70415;BMP280;57837;52.064;113.478;2023-06-22T09:20:34;92981.22;;;29.00
70415;BMP280;57837;52.064;113.478;2023-06-22T09:23:38;92975.75;;;28.98
70415;BMP280;57837;52.064;113.478;2023-06-22T09:26:42;92983.75;;;28.98
70415;BMP280;57837;52.064;113.478;2023-06-22T09:29:45;92980.84;;;28.94
70415;BMP280;57837;52.064;113.478;2023-06-22T09:32:49;92981.56;;;28.94
70415;BMP280;57837;52.064;113.478;2023-06-22T09:35:53;92971.44;;;28.93
70415;BMP280;57837;52.064;113.478;2023-06-22T09:38:57;92974.13;;;28.93
70415;BMP280;57837;52.064;113.478;2023-06-22T09:42:02;92971.34;;;28.91
70415;BMP280;57837;52.064;113.478;2023-06-22T09:45:06;92973.31;;;28.90
70415;BMP280;57837;52.064;113.478;2023-06-22T09:48:09;92980.53;;;28.88
70415;BMP280;57837;52.064;113.478;2023-06-22T09:51:13;92977.03;;;28.85
70415;BMP280;57837;52.064;113.478;2023-06-22T09:54:19;92966.84;;;28.81
70415;BMP280;57837;52.064;113.478;2023-06-22T09:57:23;92963.34;;;28.79
70415;BMP280;57837;52.064;113.478;2023-06-22T10:00:27;92961.50;;;28.81
70415;BMP280;57837;52.064;113.478;2023-06-22T10:03:31;92955.22;;;28.77
70415;BMP280;57837;52.064;113.478;2023-06-22T10:06:35;92957.06;;;28.74
70415;BMP280;57837;52.064;113.478;2023-06-22T10:09:39;92957.41;;;28.69
70415;BMP280;57837;52.064;113.478;2023-06-22T10:12:47;92957.66;;;28.73
70415;BMP280;57837;52.064;113.478;2023-06-22T10:15:51;92959.50;;;28.70
70415;BMP280;57837;52.064;113.478;2023-06-22T10:18:55;92974.66;;;28.68
70415;BMP280;57837;52.064;113.478;2023-06-22T10:21:59;92964.34;;;28.62
70415;BMP280;57837;52.064;113.478;2023-06-22T10:25:02;92968.06;;;28.57
70415;BMP280;57837;52.064;113.478;2023-06-22T10:28:06;92971.19;;;28.54
70415;BMP280;57837;52.064;113.478;2023-06-22T10:31:10;92974.44;;;28.52
70415;BMP280;57837;52.064;113.478;2023-06-22T10:34:14;92970.94;;;28.50
70415;BMP280;57837;52.064;113.478;2023-06-22T10:37:18;92971.41;;;28.46
70415;BMP280;57837;52.064;113.478;2023-06-22T10:40:21;92975.06;;;28.41
70415;BMP280;57837;52.064;113.478;2023-06-22T10:43:25;92969.06;;;28.41
70415;BMP280;57837;52.064;113.478;2023-06-22T10:46:29;92977.19;;;28.43
70415;BMP280;57837;52.064;113.478;2023-06-22T10:49:32;92971.72;;;28.41
70415;BMP280;57837;52.064;113.478;2023-06-22T10:52:36;92972.28;;;28.39
70415;BMP280;57837;52.064;113.478;2023-06-22T10:55:40;92974.06;;;28.35
70415;BMP280;57837;52.064;113.478;2023-06-22T10:58:58;92968.34;;;28.29
70415;BMP280;57837;52.064;113.478;2023-06-22T11:02:02;92978.75;;;28.25
70415;BMP280;57837;52.064;113.478;2023-06-22T11:05:06;92967.84;;;28.20
70415;BMP280;57837;52.064;113.478;2023-06-22T11:08:12;92964.25;;;28.16
70415;BMP280;57837;52.064;113.478;2023-06-22T11:11:16;92962.56;;;28.11
70415;BMP280;57837;52.064;113.478;2023-06-22T11:14:21;92964.31;;;28.06
70415;BMP280;57837;52.064;113.478;2023-06-22T11:17:25;92951.47;;;28.03
70415;BMP280;57837;52.064;113.478;2023-06-22T11:20:29;92953.31;;;28.00
70415;BMP280;57837;52.064;113.478;2023-06-22T11:23:33;92957.81;;;27.98
70415;BMP280;57837;52.064;113.478;2023-06-22T11:26:36;92958.25;;;27.94
70415;BMP280;57837;52.064;113.478;2023-06-22T11:29:40;92967.22;;;27.89
70415;BMP280;57837;52.064;113.478;2023-06-22T11:32:44;92953.53;;;27.83
70415;BMP280;57837;52.064;113.478;2023-06-22T11:35:48;92949.97;;;27.79
70415;BMP280;57837;52.064;113.478;2023-06-22T11:38:52;92940.91;;;27.72
70415;BMP280;57837;52.064;113.478;2023-06-22T11:41:55;92953.25;;;27.68
70415;BMP280;57837;52.064;113.478;2023-06-22T11:44:59;92958.31;;;27.63
70415;BMP280;57837;52.064;113.478;2023-06-22T11:48:03;92949.38;;;27.59
70415;BMP280;57837;52.064;113.478;2023-06-22T11:51:07;92947.63;;;27.52
70415;BMP280;57837;52.064;113.478;2023-06-22T11:54:11;92946.66;;;27.47
70415;BMP280;57837;52.064;113.478;2023-06-22T11:57:15;92939.00;;;27.42
70415;BMP280;57837;52.064;113.478;2023-06-22T12:00:19;92946.00;;;27.37
70415;BMP280;57837;52.064;113.478;2023-06-22T12:03:23;92962.81;;;27.30
70415;BMP280;57837;52.064;113.478;2023-06-22T12:06:27;92957.84;;;27.25
70415;BMP280;57837;52.064;113.478;2023-06-22T12:09:31;92956.72;;;27.18
70415;BMP280;57837;52.064;113.478;2023-06-22T12:12:35;92956.34;;;27.12
70415;BMP280;57837;52.064;113.478;2023-06-22T12:15:37;92955.81;;;27.04
70415;BMP280;57837;52.064;113.478;2023-06-22T12:18:41;92965.78;;;26.94
70415;BMP280;57837;52.064;113.478;2023-06-22T12:21:44;92963.84;;;26.85
70415;BMP280;57837;52.064;113.478;2023-06-22T12:24:48;92968.06;;;26.78
70415;BMP280;57837;52.064;113.478;2023-06-22T12:27:51;92969.50;;;26.70
70415;BMP280;57837;52.064;113.478;2023-06-22T12:30:54;92968.22;;;26.61
70415;BMP280;57837;52.064;113.478;2023-06-22T12:33:57;92960.97;;;26.52
70415;BMP280;57837;52.064;113.478;2023-06-22T12:37:01;92952.91;;;26.40
70415;BMP280;57837;52.064;113.478;2023-06-22T12:40:05;92957.81;;;26.34
70415;BMP280;57837;52.064;113.478;2023-06-22T12:43:10;92958.63;;;26.27
70415;BMP280;57837;52.064;113.478;2023-06-22T12:46:13;92954.00;;;26.18
70415;BMP280;57837;52.064;113.478;2023-06-22T12:49:18;92957.53;;;26.11
70415;BMP280;57837;52.064;113.478;2023-06-22T12:52:21;92966.31;;;26.04
70415;BMP280;57837;52.064;113.478;2023-06-22T12:55:25;92957.25;;;25.98
70415;BMP280;57837;52.064;113.478;2023-06-22T12:58:28;92968.09;;;25.92
70415;BMP280;57837;52.064;113.478;2023-06-22T13:01:32;92971.75;;;25.87
70415;BMP280;57837;52.064;113.478;2023-06-22T13:04:35;92967.97;;;25.80
70415;BMP280;57837;52.064;113.478;2023-06-22T13:07:38;92969.63;;;25.76
70415;BMP280;57837;52.064;113.478;2023-06-22T13:10:41;92971.84;;;25.70
70415;BMP280;57837;52.064;113.478;2023-06-22T13:13:46;92969.59;;;25.66
70415;BMP280;57837;52.064;113.478;2023-06-22T13:16:49;92975.91;;;25.61
70415;BMP280;57837;52.064;113.478;2023-06-22T13:19:53;92979.50;;;25.56
70415;BMP280;57837;52.064;113.478;2023-06-22T13:22:57;92975.72;;;25.50
70415;BMP280;57837;52.064;113.478;2023-06-22T13:26:00;92972.09;;;25.45
70415;BMP280;57837;52.064;113.478;2023-06-22T13:29:04;92977.63;;;25.40
70415;BMP280;57837;52.064;113.478;2023-06-22T13:32:07;92971.38;;;25.35
70415;BMP280;57837;52.064;113.478;2023-06-22T13:35:11;92975.66;;;25.30
70415;BMP280;57837;52.064;113.478;2023-06-22T13:38:15;92972.41;;;25.22
70415;BMP280;57837;52.064;113.478;2023-06-22T13:41:20;92982.72;;;25.18
70415;BMP280;57837;52.064;113.478;2023-06-22T13:44:24;92983.66;;;25.13
70415;BMP280;57837;52.064;113.478;2023-06-22T13:47:32;92976.53;;;25.06
70415;BMP280;57837;52.064;113.478;2023-06-22T13:50:35;92977.47;;;25.01
70415;BMP280;57837;52.064;113.478;2023-06-22T13:53:39;92980.53;;;24.98
70415;BMP280;57837;52.064;113.478;2023-06-22T13:56:43;92978.84;;;24.93
70415;BMP280;57837;52.064;113.478;2023-06-22T13:59:47;92974.31;;;24.86
70415;BMP280;57837;52.064;113.478;2023-06-22T14:02:51;92968.75;;;24.82
70415;BMP280;57837;52.064;113.478;2023-06-22T14:05:55;92975.00;;;24.76
70415;BMP280;57837;52.064;113.478;2023-06-22T14:08:59;92969.91;;;24.71
70415;BMP280;57837;52.064;113.478;2023-06-22T14:12:04;92982.84;;;24.67
70415;BMP280;57837;52.064;113.478;2023-06-22T14:15:08;92985.22;;;24.63
70415;BMP280;57837;52.064;113.478;2023-06-22T14:18:13;92991.44;;;24.58
70415;BMP280;57837;52.064;113.478;2023-06-22T14:21:17;92981.66;;;24.51
70415;BMP280;57837;52.064;113.478;2023-06-22T14:24:21;92978.22;;;24.41
70415;BMP280;57837;52.064;113.478;2023-06-22T14:27:44;92973.56;;;24.32
70415;BMP280;57837;52.064;113.478;2023-06-22T14:30:47;92974.19;;;24.22
70415;BMP280;57837;52.064;113.478;2023-06-22T14:33:50;92981.81;;;24.18
70415;BMP280;57837;52.064;113.478;2023-06-22T14:36:53;92977.97;;;24.12
70415;BMP280;57837;52.064;113.478;2023-06-22T14:39:56;92975.56;;;24.06
70415;BMP280;57837;52.064;113.478;2023-06-22T14:43:00;92981.06;;;24.01
70415;BMP280;57837;52.064;113.478;2023-06-22T14:46:03;92984.69;;;23.96
70415;BMP280;57837;52.064;113.478;2023-06-22T14:49:07;92978.19;;;23.89
70415;BMP280;57837;52.064;113.478;2023-06-22T14:52:11;92975.78;;;23.84
70415;BMP280;57837;52.064;113.478;2023-06-22T14:55:14;92980.59;;;23.78
70415;BMP280;57837;52.064;113.478;2023-06-22T14:58:17;92972.88;;;23.72
70415;BMP280;57837;52.064;113.478;2023-06-22T15:01:20;92971.84;;;23.67
70415;BMP280;57837;52.064;113.478;2023-06-22T15:04:23;92973.50;;;23.63
70415;BMP280;57837;52.064;113.478;2023-06-22T15:07:26;92977.91;;;23.60
70415;BMP280;57837;52.064;113.478;2023-06-22T15:10:30;92983.41;;;23.55
70415;BMP280;57837;52.064;113.478;2023-06-22T15:13:34;92988.38;;;23.51
70415;BMP280;57837;52.064;113.478;2023-06-22T15:16:37;92982.63;;;23.45
70415;BMP280;57837;52.064;113.478;2023-06-22T15:19:40;92990.22;;;23.41
70415;BMP280;57837;52.064;113.478;2023-06-22T15:22:43;92989.69;;;23.35
70415;BMP280;57837;52.064;113.478;2023-06-22T15:25:47;93002.78;;;23.25
70415;BMP280;57837;52.064;113.478;2023-06-22T15:28:51;93006.22;;;23.10
70415;BMP280;57837;52.064;113.478;2023-06-22T15:31:54;93017.59;;;22.88
70415;BMP280;57837;52.064;113.478;2023-06-22T15:34:58;93022.06;;;22.71
70415;BMP280;57837;52.064;113.478;2023-06-22T15:38:02;93021.75;;;22.59
70415;BMP280;57837;52.064;113.478;2023-06-22T15:41:06;93023.34;;;22.47
70415;BMP280;57837;52.064;113.478;2023-06-22T15:44:10;93010.91;;;22.25
70415;BMP280;57837;52.064;113.478;2023-06-22T15:47:14;93015.16;;;21.97
70415;BMP280;57837;52.064;113.478;2023-06-22T15:50:18;93016.72;;;21.70
70415;BMP280;57837;52.064;113.478;2023-06-22T15:53:22;93015.66;;;21.58
70415;BMP280;57837;52.064;113.478;2023-06-22T15:56:25;93012.81;;;21.48
70415;BMP280;57837;52.064;113.478;2023-06-22T15:59:30;93017.94;;;21.46
70415;BMP280;57837;52.064;113.478;2023-06-22T16:02:33;93020.00;;;21.40
70415;BMP280;57837;52.064;113.478;2023-06-22T16:05:37;93022.44;;;21.31
70415;BMP280;57837;52.064;113.478;2023-06-22T16:08:40;93028.59;;;21.26
70415;BMP280;57837;52.064;113.478;2023-06-22T16:11:44;93022.63;;;21.25
70415;BMP280;57837;52.064;113.478;2023-06-22T16:14:47;93025.06;;;21.23
70415;BMP280;57837;52.064;113.478;2023-06-22T16:17:50;93020.13;;;21.20
70415;BMP280;57837;52.064;113.478;2023-06-22T16:20:53;93022.38;;;21.16
70415;BMP280;57837;52.064;113.478;2023-06-22T16:23:56;93023.09;;;21.16
70415;BMP280;57837;52.064;113.478;2023-06-22T16:26:59;93014.81;;;21.12
70415;BMP280;57837;52.064;113.478;2023-06-22T16:30:03;93020.44;;;21.08
70415;BMP280;57837;52.064;113.478;2023-06-22T16:33:06;93021.81;;;21.02
70415;BMP280;57837;52.064;113.478;2023-06-22T16:36:09;93027.03;;;20.94
70415;BMP280;57837;52.064;113.478;2023-06-22T16:39:13;93027.00;;;20.87
70415;BMP280;57837;52.064;113.478;2023-06-22T16:42:17;93018.56;;;20.81
70415;BMP280;57837;52.064;113.478;2023-06-22T16:45:21;93020.13;;;20.76
70415;BMP280;57837;52.064;113.478;2023-06-22T16:48:25;93022.72;;;20.69
70415;BMP280;57837;52.064;113.478;2023-06-22T16:51:28;93017.97;;;20.67
70415;BMP280;57837;52.064;113.478;2023-06-22T16:54:31;93014.66;;;20.67
70415;BMP280;57837;52.064;113.478;2023-06-22T16:57:37;93014.47;;;20.65
70415;BMP280;57837;52.064;113.478;2023-06-22T17:00:41;93012.53;;;20.65
70415;BMP280;57837;52.064;113.478;2023-06-22T17:03:59;93006.75;;;20.67
70415;BMP280;57837;52.064;113.478;2023-06-22T17:07:10;93002.03;;;20.65
70415;BMP280;57837;52.064;113.478;2023-06-22T17:10:14;93010.22;;;20.61
70415;BMP280;57837;52.064;113.478;2023-06-22T17:13:17;93007.94;;;20.58
70415;BMP280;57837;52.064;113.478;2023-06-22T17:16:21;93011.78;;;20.57
70415;BMP280;57837;52.064;113.478;2023-06-22T17:19:26;93010.00;;;20.52
70415;BMP280;57837;52.064;113.478;2023-06-22T17:22:30;92995.22;;;20.49
70415;BMP280;57837;52.064;113.478;2023-06-22T17:25:40;93003.13;;;20.49